Timeline UpdatesTrip UpdatesNews PostsPvt Posts♥♥Travel TipsAdmin PostsConv PostsFollowed PostsChat RequestsBlog PostsPNR Posts

Disclaimer
Search
 
 
Sat Oct 25, 2014 22:59:20 ISTHomeTrainsΣChainsAtlasPNRForumGalleryNewsFAQTripsMembersLoginFeedback
No Recent News for this Train
Other Trains in the News **new
Latest...
Will depart from originating station at 15:30 hours w.e.f. 01.09.2014
Wed Aug 27, 2014 (04:18AM)
⇐ Return Journey: Train# 13352-Slip

18189/Tatanagar- Alappuzha Alleppey Express-Slip

Time-Table HAS CHANGED.
Sep 08 2014 (8:55PM)
Change Departure Station:
Change Arrival Station:
Post a Train Travel TipPost a Train Travel Tip **new
Post a Comment/Question/Picture/VideoPost a Comment/Question/Picture/Video
Pantry/Catering
✓ Pantry Car Avbl
✓ Catering Avbl
.pantry car available from rourkela to allappuzha because pantry car...
Read more...
is available in dhanbad portion
Loco/Rake Reversals
MAS/Chennai Central (12); SRR/Shoranur Junction (7); VSKP/Visakhapatnam Junction (8);
RSA - Rake Sharing
Rake/Coach Composition
LOCO-SLR*-GS*-S1*-S2*-S3*-S4*-S5*-S6*-S7*-S8*-PC*-A1*-B1*-B2-ST1-ST2-ST3-ST4-ST5-GS-SLR; *= Dhanbad portion attached at ROU.
Loco
Loco In-Charge:- TATA - ROU :- TATA WAM-4/ASN WAM-4 ROU - VSKP...
Read more...
:- VSKP/R/BNDM WDM-3A VSKP - MAS :- AJJ WAM-4/BZA WAM-4 - RPM WAP-4/1 MAS - ALLP :- RPM WAP-1/WAP-4, AJJ WAM-4/WAP-4
News    PNR    Forum    Time-Table    Availability    Fare Chart    Map    Arr/Dep History    Trips    Gallery    ΣChains    X/O    Timeline    
Travel Time: 0h 38m    84 halts    Distance: 13 km
Type: Mail/Express
Zone: SER/South Eastern
Departs @ 19:42
Platform# 1
SMTWTFS
Mararikkulam/MAKM 
Arrives @ 20:20 (Avg 7m late)
Platform# 3
SMTWTFS
Alappuzha/ALLP 

84 halts. 2 intermediate Stations between Mararikkulam and Alappuzha

Show ALL intermediate Stations  Show Old Time-Table

#TrkCodeStation NameX/OArrivesAvgDepartsAvgHaltPFDay#KmSpeedElevZoneAddress
1/==/TATATatanagar Junction (5)  -15:45 15:30+311-2349.562164mSER91-657-2423026, Jharkhand
2/==/SINISini Junction (3)X  16:10 15:56+1216:11 15:57+141m--1-2322.561182mSERNational Highway 33, Jharkhand
3/==/RKSNRajkharsawan Junction (3)  16:25 16:12+1616:26 16:13+171m--1-2307.355189mSERSaraikela Kharswan District, Jharkhand
4/==/CKPChakradharpur (3)X  16:50 16:35+1116:55 16:40+115m11-2287.292235mSERChakradharpur (West Singhbhum), Jharkhand
5/==/GOLGoilkera (2)  17:16 17:02+1717:17 17:03+181m--1-2253.457333mSERGoilkera, Jharkhand
6/==/MOUManoharpurX  17:46 17:32+1517:47 17:33+161m--1-2225.969228mSERManoharpur, Jharkhand
7/==/BNDMBondamunda (2)  18:14 18:02+1718:15 18:03+111m--1-2192.718213mSERRourkela, Odisha
8/--/ROURourkela Junction (5)X18:35 18:25+1119:00+3:5325 35m11-2186.264198mSERRourkela, Odisha
9/==/GPRaj Gangpur (3)O  19:28+1819:29+201m--1-2156.442237mSERRaj Ganpur, Odisha
10/==/BMBBamra (3)  19:59 20:19+1920:00 20:20+191m--1-2121.7110259mSERBamra PH : 06642-229268, Odisha
11/==/JSGJharsuguda Junction (5)  20:40+1120:50+910m11-2085.266236mSERJharsuguda, Odisha
12|==!RGLRengaliO  21:15 21:14+3021:17 21:15+302 1m--1-2058.865208mECoRState Highway 10, Odisha
13|==|SBPDSambalpur Road  21:35 21:34-21:37 21:35-2 1m--1-2038.19161mECoRSambalpur, Odisha
14|--|SBPSambalpur Junction (3)X  21:45+2821:55+3010m11-2036.661159mECoRSambalpur, Odisha
15|--|ATSAttabira  22:18 22:19+3822:20+402 1m--1-2012.177164mECoRBargarh, Odisha
16|--|BRGABargarh Road (3)XO  22:34+4222:39+515m--1-1994.068185mECoRBargarh, Odisha
17|--|BRPLBarpaliX  22:57 22:56+4922:59 22:57+1:022 1m--1-1974.865178mECoRBarpali, Odisha
18|--|BLGRBalangir (3)  23:50+1:0823:55+1:165m--1-1917.846210mECoRBolangir, Odisha
19|--|BUDMBadmal  00:50 00:51+5800:52+592 1m--2-1874.423209mECoRDumerbahal Rd, Odisha
20|--|TIGTitlagarh Junction (3)XO  01:45+2601:55+2910m--2-1854.452212mECoRTitlagarh, Odisha
21%==%KSNGKesinga (1)XO  02:10 02:11+2602:12+272 1m12-1840.561183mECoRKesinga, Odisha
22%==%RPRDRupra RoadO  02:27 02:28+3302:29+332 1m--2-1824.240233mECoRKalahandi, Odisha
23%==%NRLRNorla RoadO  02:38 02:39+3202:40+322 1m--2-1817.658247mECoRKalahandi, Odisha
24%==%AMBAmbodala  03:05 03:06+3303:07+332 1m--2-1792.638374mECoRState Highway 6, Odisha
25%==%MNGDMunigudaX  03:45 03:46+1803:47+192 1m--2-1767.640335mECoRMuniguda, Odisha
26%==%THVTherubaliO  04:40 04:41+204:42+62 1m--2-1731.630270mECoRRayagada, Odisha
27%==%SPRDSingapuram Road (2)X  05:00 05:01+205:02+92 1m--2-1722.315248mECoRJaykaypur, Odisha
28%==%RGDARayagada (3)O  05:40-205:55+715m--2-1713.072229mECoRRayagada ph.no 06856-222407, Odisha
29%==%PVPTParvatipuram TownXO  06:32 06:33-06:34-2 1m--2-1667.720121mECoRParvatipuram, Andhra Pradesh
30%==%PVPParvatipuram (3)  06:38 06:39+1706:40+172 1m--2-1666.172122mECoRParvatipuram, Andhra Pradesh
31%==%VBLBobbili Junction (2)X  07:00+1807:03+183m22-1642.249137mECoRBobbili, Andhra Pradesh
32%==%VZMVizianagaram Junction (5)  08:15 08:10+1008:20 08:15+175m--2-1587.98463mECoRVizianagaram, Andhra Pradesh
33/==/KTVKottavalasa Junction (5)X  08:48 08:40+3608:50 08:42+362m--2-1553.05758mECoRVizianagaram District, Andhra Pradesh
34/==/SCMSimhachalam (2)X  09:17 09:01-09:19 09:02-2 1m--2-1534.9927mECoRVisakhapatnam, Andhra Pradesh
35/==/VSKPVisakhapatnam Junction (8)XO10:05 09:55+710:25 10:10+820 15m42-1526.83311mECoRVishakhapatnam 530001, Andhra Pradesh
36/==/AKPAnakapalle (3)  11:10 11:09+2711:11 11:10+271m--2-1494.46830mSCRAnakapalle ph.no . 08924-221698, Andhra Pradesh
37/==/YLMElamanchili (2)X  11:31+2911:32+321m--2-1470.77123mSCRVisakhapatnam District, Andhra Pradesh
38/==/NRPNarsipatnam Road (2)  11:47+3411:48+341m--2-1453.08418mSCRVisakhapatnam District, Andhra Pradesh
39/==/TUNITuni (2)X  12:04+4212:05+471m12-1430.77124mSCRTuni ph.no. 08854-252172, Andhra Pradesh
40/==/ANVAnnavaram (3)  12:19+1:0612:20+1:071m12-1414.07627mSCREast Godavari District, Andhra Pradesh
41/==/GLPGollaproluX  12:35+1:1012:36+1:101m--2-1394.94919mSCRGollaprollu, Andhra Pradesh
42/==/PAPPithapuram (2)  12:43+1:1212:44+1:151m--2-1389.27222mSCREast Godavari District, Andhra Pradesh
43/==/SLOSamalkot Junction (3)  12:54+4612:55+461m32-1377.28418mSCRSamalkot, Andhra Pradesh
44/==/APTAnaparti (3)  13:14+1:2613:15+1:261m--2-1350.63821mSCREast Godavari District, Andhra Pradesh
45/==/DWPDwarapudi (3)  13:21+1:2513:22+1:261m--2-1346.92420mSCREast Godavari District, Andhra Pradesh
46/==/RJYRajahmundry (3)  14:11+5114:16+515m12-1327.03623mSCRRajahmundry ph.no. 0883-2420541, Andhra Pradesh
47/==/KVRKovvur (3)  14:29+5614:30+571m--2-1319.16125mSCRWest Godavari, Andhra Pradesh
48/==/NDDNidadavolu Junction (3)  14:44+1:1014:45+1:111m--2-1304.87120mSCRNidadavolu jtn ph.no. 08813-210325, Andhra Pradesh
49/==/TDDTadepalligudem (3)X  15:02+1:1415:03+1:151m--2-1284.88718mSCRTadepalligudem, Andhra Pradesh
50/==/EEEluru (3)X  15:36+1:0915:37+1:101m32-1237.13319mSCREluru Ph.no. 08812 226401., Andhra Pradesh
51/==/BZAVijayawada Junction (10)X  17:25+2917:45+2720m--2-1177.76924mSCRVijayawada 520001, Andhra Pradesh
52/==/TELTenali Junction (5)O  18:12+4118:13+421m32-1146.44316mSCRTel: 08644-227834, Andhra Pradesh
53/==/NDONidubrolu (3)  18:33 18:44+1:0318:34 18:45+1:041m--2-1124.4659mSCRNidubrolu, Andhra Pradesh
54/==/BPPBapatla (3)X  18:53 19:04+5418:54 19:05+551m--2-1103.86510mSCRBapatla, Andhra Pradesh
55/==/CLXChirala (4)  19:06 19:19+1:0919:07 19:20+1:101m--2-1088.8878mSCRChirala, Andhra Pradesh
56/==/CJMChinnaganjam (3)X  19:23 19:34+1:1719:24 19:35+1:201m--2-1068.4519mSCRChinna Ganjam, Andhra Pradesh
57/==/OGLOngole (3)  20:12 20:09+5720:13 20:10+581m32-1039.46812mSCROngole, Andhra Pradesh
58/==/SKMSingarayakonda (2)X  20:35+1:0420:36+1:071m22-1011.29126mSCRSingarayakonda, Andhra Pradesh
59/==/KVZKavali (4)X  21:01+2221:02+281m22-973.47621mSCRKavali, Andhra Pradesh
60/==/BTTRBitragunta (2)X  21:15+5521:16+551m22-957.04515mSCRBitragunta, Andhra Pradesh
61/==/NLRNellore (4)X  22:02+722:03+71m32-922.61721mSCRNellore, Andhra Pradesh
62/==/GDRGudur Junction (3)  00:18+000:20+12m23-884.26919mSCRGudur, Andhra Pradesh
63/==/NYPNayadupeta (3)  00:44+800:45+91m23-856.56833mSRNayudupeta, Andhra Pradesh
64/==/SPESullurupeta (3)  01:09+1201:10+131m23-829.2479mSR524121., Andhra Pradesh
65/==/MASChennai Central (12)03:00 02:55+003:25+125 30m83-746.8599mSRChennai 600003, Tamil Nadu
66/==/AJJArakkonam Junction (8)X  04:35+504:40+45m13-678.25691mSRArakkonam, Tamil Nadu
67/==/KPDKatpadi Junction (5)XO  05:50 05:45-505:55 05:50+25m13-617.377213mSRVellore 632007, Tamil Nadu
68/==/GYMGudiyattam (3)O  06:14 06:09+406:15 06:10+51m33-592.891269mSRVellore, Tamil Nadu
69/==/VNVaniyambadiXO  06:44 06:39+906:45 06:40+81m--3-549.024357mSRVaniyambadi, Tamil Nadu
70/==/JTJJolarpettai Junction (5)O  07:18-607:20+02m--3-533.539405mSRJolarpettai, Tamil Nadu
71/==/TPTTirupattur (2)  07:30 07:31+207:32+22 1m--3-526.373392mSRTirupattur ph.no. 04179-220062, Tamil Nadu
72/==/SLYSamalpatti  07:50 07:51+507:52+42 1m--3-503.287388mSRSamalpatti ph.no. 04341-245601, Tamil Nadu
73/==/BQIBommidiX  08:23 08:24+808:25+162 1m--3-456.5520mSRBommidi ph.no. 04346-244441, Tamil Nadu
74/==/SASalem Junction (6)XO  09:00 09:15+2009:05 09:20+205m--3-413.361283mSRSalem, Tamil Nadu
75/==/EDErode Junction (4)X  10:15 10:20+810:25 10:30+1510m23-351.970175mSRErode ph.no: 0424-2256111, Tamil Nadu
76/==/TUPTiruppur (2)  11:03 11:13+1611:05 11:15+162m13-301.743305mSRTiruppur. Ph:0421-2200450, Tamil Nadu
77/==/CBECoimbatore Main Junction (6)X  12:08 12:25+612:10 12:30+62 5m--3-251.239416mSRCoimbatore 641001, Tamil Nadu
78/==/PGTPalakkad Junction (4)X  13:30 13:55+613:35 14:00+65m--3-195.93684mSRPalghat Tel: 0491 2555231, Kerala
79/==/SRRShoranur Junction (7)14:40 15:15+1315:25+645 10m53-151.34226mSRShoranur ph.no 0466-2222913, Kerala
80/==/TCRThrissur (4)  16:27 16:12+516:30 16:15+63m13-118.4606mSRThrissur Tel: 0487 2423150, Kerala
81/==/AWYAluva (3)XOO  17:18 17:10+817:20 17:12+72m13-63.81812mSRPh: 0484-2624141, Kerala
82/=-/ERSErnakulam Junction (South) (6)  18:26 18:15+118:30 18:25+14 10m13-44.4413mSRErnakulam 682016, Kerala
83/--/TUVRTuravur (2)  19:04 18:59-19:05 19:00-1m--3-20.9665mSRThuravoor, Kerala
84/--/SRTLCherthala (3)O  19:19 19:09+019:20 19:10+01m23-11.0217mSRPh: 0478- 2812500, Kerala
85/--/ALLPAlappuzha (3)•  20:20+7-3313.2-8mSRPh:0477-2253965, Kerala
Scroll to Top
Scroll to Bottom